Time;durP1;ratioP1;P1;durP2;ratioP2;P2;SDS_P1;SDS_P2;PMS_P1;PMS_P2;Temp;Humidity;BMP_temperature;BMP_pressure;BME280_temperature;BME280_humidity;BME280_pressure;Samples;Min_cycle;Max_cycle;Signal;HPM_P1;HPM_P2
2024/03/29 00:00:46;;;;;;;5.07;1.70;;;9.40;99.90;;;;;;5010736;28;21537;-68
2024/03/29 00:03:12;;;;;;;8.10;1.60;;;9.40;99.90;;;;;;5008114;28;20201;-67
2024/03/29 00:05:38;;;;;;;5.00;1.60;;;9.40;99.90;;;;;;5007342;28;21210;-68
2024/03/29 00:08:04;;;;;;;3.50;1.33;;;9.50;99.90;;;;;;5022396;28;20189;-68
2024/03/29 00:10:30;;;;;;;6.18;1.60;;;9.40;99.90;;;;;;5007220;28;20220;-66
2024/03/29 00:12:56;;;;;;;7.00;1.65;;;9.40;99.90;;;;;;5006258;28;20280;-66
2024/03/29 00:15:22;;;;;;;4.03;1.38;;;9.40;99.90;;;;;;5007567;28;21135;-68
2024/03/29 00:17:47;;;;;;;7.53;2.53;;;9.40;99.90;;;;;;5005795;28;20560;-69
2024/03/29 00:20:13;;;;;;;5.85;1.83;;;9.40;99.90;;;;;;5008931;28;20911;-70
2024/03/29 00:22:39;;;;;;;6.25;1.60;;;9.30;99.90;;;;;;5007436;28;20199;-67
2024/03/29 00:25:05;;;;;;;6.28;1.52;;;9.20;99.90;;;;;;5006698;28;20613;-67
2024/03/29 00:27:32;;;;;;;6.32;1.60;;;9.20;99.90;;;;;;5009264;28;20226;-68
2024/03/29 00:29:58;;;;;;;10.02;1.80;;;9.20;99.90;;;;;;5006264;28;20188;-69
2024/03/29 00:32:24;;;;;;;8.48;1.35;;;9.20;99.90;;;;;;5006783;28;20196;-69
2024/03/29 00:34:51;;;;;;;7.68;1.90;;;9.10;99.90;;;;;;5008931;28;20188;-68
2024/03/29 00:37:16;;;;;;;5.97;1.42;;;9.10;99.90;;;;;;5021584;28;20220;-68
2024/03/29 00:39:43;;;;;;;3.78;1.50;;;9.10;99.90;;;;;;5008855;28;20196;-69
2024/03/29 00:42:09;;;;;;;5.40;1.60;;;9.10;99.90;;;;;;5005475;28;20189;-68
2024/03/29 00:44:37;;;;;;;7.15;1.65;;;9.10;99.90;;;;;;5006421;28;20544;-66
2024/03/29 00:47:06;;;;;;;4.45;1.60;;;9.00;99.90;;;;;;5006694;28;20185;-68
2024/03/29 00:49:32;;;;;;;5.15;1.55;;;9.10;99.90;;;;;;5006021;28;21010;-68
2024/03/29 00:51:57;;;;;;;7.88;1.63;;;9.00;99.90;;;;;;5006766;28;20194;-69
2024/03/29 00:54:23;;;;;;;6.90;1.60;;;9.00;99.90;;;;;;5008202;28;20295;-68
2024/03/29 00:56:50;;;;;;;4.78;1.65;;;9.00;99.90;;;;;;5005608;28;20246;-68
2024/03/29 00:59:16;;;;;;;4.15;1.48;;;9.00;99.90;;;;;;5007719;28;20203;-70
2024/03/29 01:01:41;;;;;;;7.50;1.70;;;9.00;99.90;;;;;;5006533;28;20185;-67
2024/03/29 01:04:07;;;;;;;8.80;1.70;;;8.90;99.90;;;;;;5006330;28;20203;-67
2024/03/29 01:06:33;;;;;;;8.38;1.75;;;8.90;99.90;;;;;;5007858;28;20212;-68
2024/03/29 01:09:00;;;;;;;11.65;2.10;;;9.00;99.90;;;;;;5005368;28;20651;-68
2024/03/29 01:11:26;;;;;;;5.65;1.58;;;8.90;99.90;;;;;;5007925;28;20200;-70
2024/03/29 01:13:52;;;;;;;9.88;1.80;;;9.00;99.90;;;;;;5006235;28;20203;-68
2024/03/29 01:16:18;;;;;;;8.25;1.42;;;9.00;99.90;;;;;;5005848;28;20244;-69
2024/03/29 01:18:44;;;;;;;12.10;1.70;;;9.00;99.90;;;;;;5008002;28;20872;-69
2024/03/29 01:21:09;;;;;;;6.95;1.92;;;9.00;99.90;;;;;;5005387;28;20195;-67
2024/03/29 01:23:35;;;;;;;6.30;1.50;;;9.00;99.90;;;;;;5004480;28;20185;-67
2024/03/29 01:26:01;;;;;;;7.70;1.80;;;9.00;99.90;;;;;;5007249;28;20195;-68
2024/03/29 01:28:27;;;;;;;8.27;1.48;;;9.10;99.90;;;;;;5006894;28;20286;-69
2024/03/29 01:30:54;;;;;;;6.35;1.70;;;9.10;99.90;;;;;;5005558;28;20634;-69
2024/03/29 01:33:20;;;;;;;4.18;1.40;;;9.10;99.90;;;;;;5003541;28;20196;-69
2024/03/29 01:35:47;;;;;;;3.83;1.25;;;9.10;99.90;;;;;;5004158;28;20271;-68
2024/03/29 01:38:14;;;;;;;7.80;1.70;;;9.10;99.90;;;;;;5005458;28;20195;-69
2024/03/29 01:40:39;;;;;;;5.07;1.35;;;9.00;99.90;;;;;;5025086;28;20185;-68
2024/03/29 01:43:06;;;;;;;5.60;1.40;;;9.10;99.90;;;;;;5004794;28;20246;-69
2024/03/29 01:45:32;;;;;;;4.68;1.50;;;9.10;99.90;;;;;;5006007;28;20275;-68
2024/03/29 01:47:58;;;;;;;6.68;1.67;;;9.00;99.90;;;;;;5006493;28;20322;-69
2024/03/29 01:50:24;;;;;;;5.85;1.50;;;9.10;99.90;;;;;;5005639;28;20200;-68
2024/03/29 01:52:50;;;;;;;9.55;1.98;;;9.00;99.90;;;;;;5023389;28;20200;-68
2024/03/29 01:55:16;;;;;;;5.50;1.58;;;9.00;99.90;;;;;;5019526;28;20207;-69
2024/03/29 01:57:42;;;;;;;8.00;1.67;;;9.00;99.90;;;;;;5006312;28;20546;-67
2024/03/29 02:00:10;;;;;;;11.00;1.58;;;9.00;99.90;;;;;;5006433;28;20200;-68
2024/03/29 02:02:36;;;;;;;6.20;1.30;;;9.00;99.90;;;;;;5006043;28;20685;-70
2024/03/29 02:05:04;;;;;;;6.80;1.52;;;9.00;99.90;;;;;;5005355;28;20286;-69
2024/03/29 02:07:30;;;;;;;4.30;1.58;;;9.00;99.90;;;;;;5005035;28;20217;-68
2024/03/29 02:09:56;;;;;;;4.65;1.40;;;9.00;99.90;;;;;;5004494;28;20203;-68
2024/03/29 02:12:22;;;;;;;4.40;1.30;;;9.10;99.90;;;;;;5006127;28;20208;-69
2024/03/29 02:14:48;;;;;;;9.30;1.70;;;9.00;99.90;;;;;;5019628;28;20235;-66
2024/03/29 02:17:13;;;;;;;7.05;1.70;;;9.00;99.90;;;;;;5006834;28;20405;-66
2024/03/29 02:19:39;;;;;;;5.22;1.50;;;9.00;99.90;;;;;;5020696;28;20188;-67
2024/03/29 02:22:07;;;;;;;6.45;1.48;;;9.00;99.90;;;;;;5004263;28;20702;-70
2024/03/29 02:24:33;;;;;;;5.45;1.70;;;9.00;99.90;;;;;;5005533;28;20196;-68
2024/03/29 02:26:59;;;;;;;7.53;1.20;;;9.00;99.90;;;;;;5006631;28;20755;-67
2024/03/29 02:29:25;;;;;;;6.85;1.73;;;9.00;99.90;;;;;;5022545;28;20193;-68
2024/03/29 02:31:51;;;;;;;8.85;1.50;;;9.00;99.90;;;;;;5005308;28;20239;-69
2024/03/29 02:34:17;;;;;;;10.13;1.55;;;8.90;99.90;;;;;;5006444;28;20193;-67
2024/03/29 02:36:43;;;;;;;7.72;1.50;;;8.90;99.90;;;;;;5006630;28;20248;-69
2024/03/29 02:39:10;;;;;;;3.90;1.30;;;8.90;99.90;;;;;;5005937;28;20184;-68
2024/03/29 02:41:35;;;;;;;5.07;1.58;;;8.80;99.90;;;;;;5003817;28;20233;-69
2024/03/29 02:44:01;;;;;;;4.90;1.50;;;8.90;99.90;;;;;;5006192;28;20554;-68
2024/03/29 02:46:27;;;;;;;10.35;1.80;;;8.80;99.90;;;;;;5006265;28;20200;-68
2024/03/29 02:48:53;;;;;;;5.85;1.50;;;8.80;99.90;;;;;;5017192;28;20538;-70
2024/03/29 02:51:18;;;;;;;7.25;1.63;;;8.80;99.90;;;;;;5003808;28;20310;-67
2024/03/29 02:53:44;;;;;;;4.30;1.30;;;8.80;99.90;;;;;;5006043;28;20188;-69
2024/03/29 02:56:10;;;;;;;3.20;1.15;;;8.80;99.90;;;;;;5006199;28;20220;-68
2024/03/29 02:58:36;;;;;;;6.45;1.48;;;8.80;99.90;;;;;;5007553;28;20203;-70
2024/03/29 03:01:08;;;;;;;7.45;1.52;;;8.80;99.90;;;;;;5007562;28;20185;-67
2024/03/29 03:03:35;;;;;;;6.65;1.45;;;8.70;99.90;;;;;;5008913;28;20188;-68
2024/03/29 03:06:01;;;;;;;6.63;1.60;;;8.70;99.90;;;;;;5008098;28;20184;-70
2024/03/29 03:11:11;;;;;;;6.25;1.40;;;8.70;99.90;;;;;;5009484;28;20203;-68
2024/03/29 03:13:36;;;;;;;9.07;1.77;;;8.70;99.90;;;;;;5009376;28;20267;-67
2024/03/29 03:16:02;;;;;;;4.82;1.40;;;8.70;99.90;;;;;;5007383;28;20219;-67
2024/03/29 03:18:28;;;;;;;5.70;1.60;;;8.60;99.90;;;;;;5008177;28;20215;-67
2024/03/29 03:20:55;;;;;;;8.68;1.50;;;8.60;99.90;;;;;;5006751;28;20207;-68
2024/03/29 03:23:21;;;;;;;6.70;1.50;;;8.60;99.90;;;;;;5008259;28;20811;-67
2024/03/29 03:25:57;;;;;;;6.60;1.67;;;8.60;99.90;;;;;;5007941;28;20306;-69
2024/03/29 03:28:23;;;;;;;7.28;1.50;;;8.60;99.90;;;;;;5008387;28;20588;-68
2024/03/29 03:30:50;;;;;;;9.65;1.50;;;8.60;99.90;;;;;;5009702;28;20188;-68
2024/03/29 03:33:15;;;;;;;7.40;1.52;;;8.60;99.90;;;;;;5007262;28;20188;-69
2024/03/29 03:35:42;;;;;;;6.57;1.75;;;8.60;99.90;;;;;;5008389;28;20228;-67
2024/03/29 03:38:08;;;;;;;3.65;1.40;;;8.60;99.90;;;;;;5010810;28;20188;-69
2024/03/29 03:40:35;;;;;;;4.85;1.38;;;8.60;99.90;;;;;;5006588;28;20188;-67
2024/03/29 03:43:08;;;;;;;8.45;1.50;;;8.60;99.90;;;;;;5008744;28;20188;-67
2024/03/29 03:45:39;;;;;;;6.88;1.50;;;8.60;99.90;;;;;;5008071;28;20552;-68
2024/03/29 03:48:06;;;;;;;6.90;1.40;;;8.60;99.90;;;;;;5008969;28;20203;-68
2024/03/29 03:50:32;;;;;;;4.63;1.20;;;8.60;99.90;;;;;;5008781;28;20739;-68
2024/03/29 03:52:58;;;;;;;6.05;1.30;;;8.60;99.90;;;;;;5006749;28;20192;-68
2024/03/29 03:55:24;;;;;;;5.57;1.52;;;8.60;99.90;;;;;;5007957;28;20184;-68
2024/03/29 03:57:50;;;;;;;4.72;1.27;;;8.70;99.90;;;;;;5008564;28;20766;-69
2024/03/29 04:00:17;;;;;;;5.20;1.40;;;8.70;99.90;;;;;;5006757;28;20272;-67
2024/03/29 04:02:48;;;;;;;6.55;1.30;;;8.70;99.90;;;;;;5009538;28;21044;-69
2024/03/29 04:05:14;;;;;;;4.72;1.55;;;8.70;99.90;;;;;;5007908;28;20192;-67
2024/03/29 04:07:39;;;;;;;4.82;1.42;;;8.70;99.90;;;;;;5022225;28;20188;-68
2024/03/29 04:10:05;;;;;;;4.38;1.60;;;8.70;99.90;;;;;;5007664;28;20311;-67
2024/03/29 04:12:31;;;;;;;5.18;1.55;;;8.70;99.90;;;;;;5007545;28;20311;-69
2024/03/29 04:14:56;;;;;;;3.60;1.33;;;8.70;99.90;;;;;;5008860;28;20719;-69
2024/03/29 04:17:25;;;;;;;4.88;1.42;;;8.70;99.90;;;;;;5005536;28;20216;-70
2024/03/29 04:19:51;;;;;;;5.35;1.45;;;8.70;99.90;;;;;;5006523;28;20278;-68
2024/03/29 04:22:16;;;;;;;4.85;1.20;;;8.70;99.90;;;;;;5009407;28;20204;-69
2024/03/29 04:24:42;;;;;;;4.75;1.40;;;8.70;99.90;;;;;;5004793;28;20280;-69
2024/03/29 04:27:08;;;;;;;5.72;1.70;;;8.80;99.90;;;;;;5008403;28;20771;-68
2024/03/29 04:29:33;;;;;;;5.70;1.65;;;8.80;99.90;;;;;;5008104;28;20184;-68
2024/03/29 04:31:59;;;;;;;5.95;1.30;;;8.80;99.90;;;;;;5005725;28;20201;-69
2024/03/29 04:34:25;;;;;;;4.53;1.17;;;8.80;99.90;;;;;;5008886;28;20588;-68
2024/03/29 04:36:50;;;;;;;5.50;1.40;;;8.80;99.90;;;;;;5022821;28;20232;-69
2024/03/29 04:39:16;;;;;;;6.15;1.30;;;8.80;99.90;;;;;;5006515;28;20219;-68
2024/03/29 04:41:42;;;;;;;4.75;1.48;;;8.80;99.90;;;;;;5006234;28;20193;-69
2024/03/29 04:44:08;;;;;;;5.82;1.30;;;8.80;99.90;;;;;;5004843;28;20185;-69
2024/03/29 04:46:34;;;;;;;8.18;1.50;;;8.90;99.90;;;;;;5020283;28;20517;-69
2024/03/29 04:49:00;;;;;;;6.60;1.08;;;8.90;99.90;;;;;;5007713;28;20250;-68
2024/03/29 04:51:25;;;;;;;5.30;1.67;;;8.90;99.90;;;;;;5003515;28;20469;-70
2024/03/29 04:53:51;;;;;;;7.75;1.67;;;9.00;99.90;;;;;;5007322;28;20199;-69
2024/03/29 04:56:17;;;;;;;3.63;1.30;;;8.90;99.90;;;;;;5005309;28;20211;-69
2024/03/29 04:58:42;;;;;;;3.60;1.20;;;9.00;99.90;;;;;;5007138;28;21685;-67
2024/03/29 05:01:08;;;;;;;14.65;1.90;;;9.00;99.90;;;;;;5017389;28;20652;-70
2024/03/29 05:03:35;;;;;;;8.48;1.60;;;9.00;99.90;;;;;;5006998;28;20192;-66
2024/03/29 05:06:00;;;;;;;4.05;1.10;;;9.00;99.90;;;;;;5005864;28;20752;-69
2024/03/29 05:08:26;;;;;;;8.57;1.30;;;9.00;99.90;;;;;;5004998;28;20279;-69
2024/03/29 05:10:52;;;;;;;6.85;1.55;;;9.00;99.90;;;;;;5006919;28;20742;-68
2024/03/29 05:13:19;;;;;;;6.07;1.40;;;9.10;99.90;;;;;;5006644;28;20211;-67
2024/03/29 05:15:47;;;;;;;4.03;1.20;;;9.10;99.90;;;;;;5006078;28;20216;-66
2024/03/29 05:18:13;;;;;;;4.05;1.50;;;9.20;99.90;;;;;;5021262;28;20197;-65
2024/03/29 05:20:46;;;;;;;3.30;1.60;;;9.20;99.90;;;;;;5006056;28;20188;-69
2024/03/29 05:23:14;;;;;;;7.28;1.67;;;9.20;99.90;;;;;;5005089;28;20198;-68
2024/03/29 05:25:40;;;;;;;4.43;1.50;;;9.30;99.90;;;;;;5004994;28;20192;-68
2024/03/29 05:28:07;;;;;;;5.15;1.50;;;9.30;99.90;;;;;;5006262;28;20203;-68
2024/03/29 05:30:34;;;;;;;8.50;1.40;;;9.40;99.90;;;;;;5006297;28;20278;-68
2024/03/29 05:33:00;;;;;;;7.22;1.38;;;9.40;99.90;;;;;;5005460;28;21179;-69
2024/03/29 05:35:25;;;;;;;6.05;1.48;;;9.40;99.90;;;;;;5006854;28;20319;-68
2024/03/29 05:37:53;;;;;;;3.83;1.38;;;9.50;99.90;;;;;;5007952;28;20279;-68
2024/03/29 05:40:19;;;;;;;4.13;1.35;;;9.50;99.90;;;;;;5022400;28;20181;-66
2024/03/29 05:42:45;;;;;;;4.80;1.65;;;9.50;99.90;;;;;;5006285;28;20196;-67
2024/03/29 05:45:29;;;;;;;5.20;1.20;;;9.60;99.90;;;;;;5005283;28;20676;-69
2024/03/29 05:47:56;;;;;;;5.07;1.40;;;9.60;99.90;;;;;;5007114;28;20192;-68
2024/03/29 05:50:23;;;;;;;6.75;1.40;;;9.70;99.90;;;;;;5005993;28;20302;-68
2024/03/29 05:52:50;;;;;;;6.53;1.40;;;9.60;99.90;;;;;;5006867;28;20246;-67
2024/03/29 05:55:16;;;;;;;4.45;1.30;;;9.70;99.90;;;;;;5007616;28;20207;-67
2024/03/29 05:57:44;;;;;;;3.10;1.10;;;9.70;99.90;;;;;;5007403;28;20668;-69
2024/03/29 06:00:13;;;;;;;4.28;1.20;;;9.80;99.90;;;;;;5005168;28;20188;-67
2024/03/29 06:02:38;;;;;;;4.60;1.42;;;9.70;99.90;;;;;;5006021;28;20608;-68
2024/03/29 06:05:05;;;;;;;2.72;1.50;;;9.80;99.90;;;;;;5007007;28;20195;-68
2024/03/29 06:07:33;;;;;;;5.85;1.48;;;9.80;99.90;;;;;;5008643;28;20207;-68
2024/03/29 06:10:01;;;;;;;4.20;1.13;;;9.80;99.90;;;;;;5020552;28;20277;-67
2024/03/29 06:12:27;;;;;;;4.93;1.05;;;9.80;99.90;;;;;;5004536;28;20236;-69
2024/03/29 06:17:37;;;;;;;2.85;1.20;;;9.90;99.90;;;;;;5006521;28;20582;-68
2024/03/29 06:20:04;;;;;;;6.55;1.20;;;9.90;99.90;;;;;;5022446;28;20238;-68
2024/03/29 06:22:30;;;;;;;3.15;1.10;;;9.90;99.90;;;;;;5005726;28;20196;-67
2024/03/29 06:24:59;;;;;;;2.28;0.90;;;9.90;99.90;;;;;;5004179;28;20283;-69
2024/03/29 06:27:27;;;;;;;2.13;1.20;;;10.00;99.90;;;;;;5006964;28;20304;-67
2024/03/29 06:29:53;;;;;;;3.35;1.20;;;10.00;99.90;;;;;;5006208;28;20322;-67
2024/03/29 06:32:19;;;;;;;4.45;1.50;;;10.10;99.90;;;;;;5006283;28;20205;-69
2024/03/29 06:34:45;;;;;;;2.58;1.40;;;10.10;99.90;;;;;;5007724;28;20197;-67
2024/03/29 06:37:11;;;;;;;2.28;1.00;;;10.10;99.90;;;;;;5008870;28;20232;-68
2024/03/29 06:39:37;;;;;;;4.95;1.20;;;10.20;99.90;;;;;;5009106;28;20195;-67
2024/03/29 06:42:03;;;;;;;3.97;1.35;;;10.20;99.90;;;;;;5023392;28;20191;-68
2024/03/29 06:44:29;;;;;;;2.75;1.10;;;10.30;99.90;;;;;;5008634;28;20656;-67
2024/03/29 06:46:55;;;;;;;2.47;1.20;;;10.30;99.90;;;;;;5008974;28;20608;-68
2024/03/29 06:49:20;;;;;;;1.95;1.00;;;10.30;99.90;;;;;;5005988;28;20275;-69
2024/03/29 06:51:46;;;;;;;2.53;0.90;;;10.30;99.90;;;;;;5010406;28;20697;-69
2024/03/29 06:54:12;;;;;;;4.43;1.20;;;10.40;99.90;;;;;;5008747;28;20196;-69
2024/03/29 06:56:38;;;;;;;5.45;1.90;;;10.40;99.90;;;;;;5008049;28;20211;-68
2024/03/29 06:59:04;;;;;;;6.00;1.10;;;10.40;99.90;;;;;;5011537;28;21282;-67
2024/03/29 07:01:29;;;;;;;4.75;1.30;;;10.50;99.90;;;;;;5012717;28;20192;-67
2024/03/29 07:03:56;;;;;;;2.42;1.00;;;10.50;99.90;;;;;;5023643;28;20196;-66
2024/03/29 07:06:21;;;;;;;4.18;1.10;;;10.60;99.90;;;;;;5007507;28;20281;-69
2024/03/29 07:08:47;;;;;;;5.93;1.10;;;10.60;99.90;;;;;;5023539;28;20222;-67
2024/03/29 07:11:13;;;;;;;5.88;1.25;;;10.70;99.90;;;;;;5013599;28;20288;-68
2024/03/29 07:13:39;;;;;;;2.22;1.10;;;10.70;99.90;;;;;;5007434;28;20205;-68
2024/03/29 07:16:06;;;;;;;3.83;1.33;;;10.80;99.90;;;;;;5006945;28;20334;-69
2024/03/29 07:18:32;;;;;;;2.40;1.30;;;10.80;99.90;;;;;;5008646;28;20665;-69
2024/03/29 07:20:58;;;;;;;2.95;1.45;;;10.90;99.90;;;;;;5005809;28;20231;-69
2024/03/29 07:23:24;;;;;;;3.95;0.90;;;10.90;99.90;;;;;;5008804;28;20223;-67
2024/03/29 07:26:03;;;;;;;3.28;1.20;;;11.00;99.90;;;;;;5008470;28;20192;-68
2024/03/29 07:28:30;;;;;;;3.05;1.20;;;11.00;99.90;;;;;;5006430;28;20230;-67
2024/03/29 07:30:56;;;;;;;2.92;1.42;;;11.10;99.90;;;;;;4993821;28;20195;-68
2024/03/29 07:33:26;;;;;;;2.13;1.17;;;11.20;99.90;;;;;;5007088;28;20216;-67
2024/03/29 07:35:54;;;;;;;2.40;1.00;;;11.20;99.90;;;;;;5008997;28;20279;-68
2024/03/29 07:38:21;;;;;;;3.17;1.17;;;11.30;99.90;;;;;;5008849;28;20187;-68
2024/03/29 07:40:47;;;;;;;4.75;1.20;;;11.30;99.90;;;;;;5007418;28;20272;-67
2024/03/29 07:43:13;;;;;;;3.33;1.30;;;11.40;99.90;;;;;;5010181;28;20197;-67
2024/03/29 07:45:46;;;;;;;2.67;1.00;;;11.40;99.90;;;;;;5006944;28;20194;-68
2024/03/29 07:48:13;;;;;;;2.67;1.38;;;11.40;99.90;;;;;;5010867;28;20205;-67
2024/03/29 07:50:43;;;;;;;2.55;1.10;;;11.40;99.90;;;;;;5007357;28;20637;-66
2024/03/29 07:53:09;;;;;;;2.63;0.93;;;11.40;99.90;;;;;;5008441;28;20542;-68
2024/03/29 07:55:37;;;;;;;3.72;1.00;;;11.40;99.90;;;;;;5007389;28;20299;-69
2024/03/29 07:58:05;;;;;;;3.22;1.20;;;11.50;99.90;;;;;;5006733;28;20695;-68
2024/03/29 08:00:35;;;;;;;2.47;1.10;;;11.60;99.90;;;;;;5010256;28;20184;-67
2024/03/29 08:03:01;;;;;;;6.80;1.30;;;11.60;99.90;;;;;;5006407;28;20195;-69
2024/03/29 08:05:29;;;;;;;2.83;1.10;;;11.70;99.90;;;;;;5006445;28;20661;-68
2024/03/29 08:07:55;;;;;;;2.85;1.23;;;11.60;99.90;;;;;;5011441;28;20273;-68
2024/03/29 08:10:21;;;;;;;2.88;1.10;;;11.60;99.90;;;;;;5022611;28;20331;-67
2024/03/29 08:12:47;;;;;;;2.85;0.90;;;11.60;99.90;;;;;;5004562;28;20200;-67
2024/03/29 08:15:12;;;;;;;5.85;1.20;;;11.60;99.90;;;;;;5007981;28;20207;-67
2024/03/29 08:17:38;;;;;;;3.20;1.17;;;11.60;99.90;;;;;;5010372;28;20213;-69
2024/03/29 08:20:04;;;;;;;2.70;1.15;;;11.70;99.90;;;;;;5014041;28;20649;-67
2024/03/29 08:22:33;;;;;;;3.10;1.10;;;11.70;99.90;;;;;;5009586;28;20196;-66
2024/03/29 08:25:00;;;;;;;5.32;1.20;;;11.70;99.90;;;;;;5008542;28;20188;-66
2024/03/29 08:27:26;;;;;;;2.05;1.38;;;11.80;99.90;;;;;;5005957;28;20270;-68
2024/03/29 08:29:52;;;;;;;5.35;2.90;;;11.80;99.90;;;;;;5022747;28;20283;-70
2024/03/29 08:32:18;;;;;;;2.60;1.23;;;11.90;99.90;;;;;;5007184;28;20345;-68
2024/03/29 08:34:44;;;;;;;4.05;1.02;;;11.80;99.90;;;;;;5005139;28;20199;-68
2024/03/29 08:37:09;;;;;;;1.70;1.02;;;11.90;99.90;;;;;;5022637;28;20253;-69
2024/03/29 08:39:37;;;;;;;2.28;1.02;;;11.80;99.90;;;;;;5007504;28;20188;-69
2024/03/29 08:42:07;;;;;;;4.28;1.40;;;11.90;99.90;;;;;;5005929;28;20607;-69
2024/03/29 08:44:33;;;;;;;2.40;1.10;;;11.90;99.90;;;;;;5009732;28;20291;-69
2024/03/29 08:47:01;;;;;;;1.70;1.00;;;11.90;99.90;;;;;;5006032;28;20695;-67
2024/03/29 08:49:27;;;;;;;3.42;0.98;;;11.80;99.90;;;;;;5009092;28;20200;-67
2024/03/29 08:51:53;;;;;;;1.90;0.90;;;12.00;99.90;;;;;;5022019;28;20635;-67
2024/03/29 08:54:19;;;;;;;2.47;1.27;;;12.00;99.90;;;;;;5007364;28;20207;-67
2024/03/29 08:56:44;;;;;;;1.92;1.20;;;12.00;99.90;;;;;;5004444;28;20589;-69
2024/03/29 08:59:11;;;;;;;2.92;0.90;;;12.00;99.90;;;;;;5020847;28;20196;-69
2024/03/29 09:01:41;;;;;;;1.60;0.95;;;12.10;99.90;;;;;;5011713;28;20180;-68
2024/03/29 09:04:11;;;;;;;2.80;1.40;;;12.20;99.90;;;;;;5004440;28;20196;-69
2024/03/29 09:06:37;;;;;;;2.65;1.40;;;12.30;99.90;;;;;;5007475;28;20190;-69
2024/03/29 09:09:04;;;;;;;3.05;1.20;;;12.40;99.90;;;;;;5005400;28;20197;-69
2024/03/29 09:11:30;;;;;;;2.67;1.40;;;12.40;99.90;;;;;;5008677;28;20200;-68
2024/03/29 09:13:58;;;;;;;2.35;1.10;;;12.40;99.90;;;;;;5009276;28;20192;-67
2024/03/29 09:16:24;;;;;;;2.17;0.95;;;12.40;99.90;;;;;;5009268;28;20570;-69
2024/03/29 09:18:51;;;;;;;1.83;1.20;;;12.40;99.90;;;;;;5006221;28;20184;-70
2024/03/29 09:21:16;;;;;;;3.80;1.55;;;12.40;99.90;;;;;;5006613;28;21097;-69
2024/03/29 09:23:42;;;;;;;2.22;1.08;;;12.50;99.90;;;;;;5007169;28;20177;-67
2024/03/29 09:26:09;;;;;;;3.22;1.25;;;12.60;99.90;;;;;;5007594;28;20311;-67
2024/03/29 09:28:36;;;;;;;2.47;1.30;;;12.60;99.90;;;;;;5005547;28;20192;-68
2024/03/29 09:31:02;;;;;;;2.20;1.00;;;12.60;99.90;;;;;;5004588;28;20203;-69
2024/03/29 09:33:28;;;;;;;2.45;0.98;;;12.60;99.90;;;;;;5007089;28;20188;-69
2024/03/29 09:35:54;;;;;;;3.45;1.30;;;12.60;99.90;;;;;;5005259;28;20286;-68
2024/03/29 09:38:20;;;;;;;1.63;0.80;;;12.60;99.90;;;;;;5008897;28;20188;-69
2024/03/29 09:40:49;;;;;;;3.75;1.20;;;12.50;99.90;;;;;;5005307;28;20597;-68
2024/03/29 09:43:16;;;;;;;1.90;1.00;;;12.50;99.90;;;;;;5004864;28;20189;-68
2024/03/29 09:45:43;;;;;;;2.15;1.17;;;12.60;99.90;;;;;;5003637;28;20189;-68
2024/03/29 09:48:09;;;;;;;1.63;1.05;;;12.70;99.90;;;;;;5007250;28;20541;-69
2024/03/29 09:50:38;;;;;;;1.85;1.13;;;12.70;99.90;;;;;;5019219;28;20191;-68
2024/03/29 09:53:10;;;;;;;2.00;0.85;;;12.90;99.90;;;;;;5005660;28;20184;-67
2024/03/29 09:55:37;;;;;;;8.52;1.77;;;13.00;99.90;;;;;;5019060;28;20195;-67
2024/03/29 09:58:04;;;;;;;4.90;2.28;;;13.10;99.90;;;;;;5006538;28;20192;-71
2024/03/29 10:00:29;;;;;;;7.65;4.78;;;13.20;99.90;;;;;;5003056;28;20599;-69
2024/03/29 10:03:00;;;;;;;1.17;0.93;;;13.20;99.90;;;;;;5005793;28;20350;-67
2024/03/29 10:05:29;;;;;;;1.50;1.20;;;13.10;99.90;;;;;;5007637;28;20199;-68
2024/03/29 10:07:56;;;;;;;7.82;1.90;;;13.10;99.90;;;;;;5004990;28;20197;-68
2024/03/29 10:10:22;;;;;;;3.08;1.20;;;13.10;99.90;;;;;;5008098;28;20771;-68
2024/03/29 10:12:47;;;;;;;2.00;1.08;;;13.10;99.90;;;;;;5008115;28;20199;-67
2024/03/29 10:15:18;;;;;;;2.35;1.23;;;13.10;99.90;;;;;;5011557;28;20618;-67
2024/03/29 10:17:48;;;;;;;3.08;1.85;;;13.10;99.90;;;;;;5007211;28;21516;-68
2024/03/29 10:20:18;;;;;;;2.00;1.00;;;13.00;99.90;;;;;;5023763;28;20200;-68
2024/03/29 10:22:45;;;;;;;2.20;1.08;;;13.10;99.90;;;;;;5009415;28;20191;-69
2024/03/29 10:25:15;;;;;;;3.22;1.48;;;13.10;99.90;;;;;;5007543;28;20880;-68
2024/03/29 10:27:41;;;;;;;1.70;1.10;;;13.20;99.90;;;;;;5006233;28;20181;-68
2024/03/29 10:30:08;;;;;;;2.42;1.10;;;13.30;99.90;;;;;;5006312;28;20196;-68
2024/03/29 10:32:39;;;;;;;1.92;1.10;;;13.20;99.90;;;;;;5008227;28;20188;-69
2024/03/29 10:35:06;;;;;;;2.17;1.40;;;13.30;99.90;;;;;;5006672;28;20188;-66
2024/03/29 10:37:35;;;;;;;3.28;1.20;;;13.30;99.90;;;;;;5007891;28;20231;-69
2024/03/29 10:40:04;;;;;;;3.15;1.00;;;13.20;99.90;;;;;;5008439;28;20208;-67
2024/03/29 10:42:33;;;;;;;1.75;0.90;;;13.30;99.90;;;;;;5005720;28;20192;-68
2024/03/29 10:44:59;;;;;;;5.55;1.23;;;13.40;99.90;;;;;;5008095;28;20284;-68
2024/03/29 10:47:26;;;;;;;5.82;1.05;;;13.50;99.90;;;;;;5007353;28;20665;-67
2024/03/29 10:49:54;;;;;;;0.98;0.82;;;13.60;99.90;;;;;;5006994;28;20196;-67
2024/03/29 10:52:25;;;;;;;2.45;1.20;;;13.70;99.90;;;;;;5007397;28;20196;-68
2024/03/29 10:54:51;;;;;;;2.67;1.10;;;13.80;99.90;;;;;;5018597;28;21735;-67
2024/03/29 10:57:24;;;;;;;2.50;1.33;;;13.80;99.90;;;;;;5009430;28;20211;-70
2024/03/29 11:00:05;;;;;;;1.30;1.00;;;13.90;99.90;;;;;;5008721;28;20196;-69
2024/03/29 11:02:55;;;;;;;2.40;1.30;;;13.90;99.90;;;;;;5008377;28;20608;-69
2024/03/29 11:05:22;;;;;;;2.83;1.30;;;14.10;99.90;;;;;;5008210;28;20249;-69
2024/03/29 11:07:50;;;;;;;1.85;1.13;;;14.20;99.90;;;;;;5024579;28;20192;-68
2024/03/29 11:10:23;;;;;;;2.00;1.65;;;14.30;99.90;;;;;;5007609;28;20259;-66
2024/03/29 11:13:06;;;;;;;3.33;2.00;;;14.30;99.90;;;;;;5009958;28;20201;-69
2024/03/29 11:15:34;;;;;;;1.45;1.08;;;14.30;99.90;;;;;;5009053;28;21184;-68
2024/03/29 11:18:00;;;;;;;1.35;1.00;;;14.20;99.90;;;;;;5007183;28;20255;-68
2024/03/29 11:20:34;;;;;;;1.63;1.13;;;14.20;99.90;;;;;;5008471;28;20184;-69
2024/03/29 11:23:15;;;;;;;2.00;1.05;;;14.20;99.90;;;;;;5009836;28;20193;-66
2024/03/29 11:25:53;;;;;;;2.22;1.60;;;14.20;99.90;;;;;;5006886;28;20691;-69
2024/03/29 11:28:32;;;;;;;5.35;1.33;;;14.20;99.90;;;;;;5006717;28;20192;-69
2024/03/29 11:31:09;;;;;;;5.60;1.30;;;14.20;99.90;;;;;;5009073;28;20195;-70
2024/03/29 11:33:37;;;;;;;2.65;1.20;;;14.20;99.90;;;;;;5009801;28;20311;-68
2024/03/29 11:36:16;;;;;;;2.00;1.10;;;14.30;99.90;;;;;;5012538;28;20234;-68
2024/03/29 11:38:43;;;;;;;4.60;1.23;;;14.40;99.90;;;;;;5007655;28;20198;-67
2024/03/29 11:41:23;;;;;;;4.45;1.25;;;14.40;99.90;;;;;;5007635;28;20542;-67
2024/03/29 11:43:50;;;;;;;5.05;2.13;;;14.40;99.90;;;;;;5007392;28;20548;-67
2024/03/29 11:46:17;;;;;;;2.75;1.20;;;14.40;99.90;;;;;;5019606;28;20275;-67
2024/03/29 11:48:44;;;;;;;2.20;1.10;;;14.50;99.90;;;;;;5006452;28;20197;-67
2024/03/29 11:51:14;;;;;;;3.10;1.25;;;14.60;99.90;;;;;;5006365;28;20208;-68
2024/03/29 11:53:40;;;;;;;4.78;1.75;;;14.70;99.90;;;;;;5004787;28;20189;-68
2024/03/29 11:56:06;;;;;;;1.90;1.23;;;14.80;99.90;;;;;;5006685;28;20274;-69
2024/03/29 11:58:33;;;;;;;1.88;1.20;;;14.90;99.90;;;;;;5005887;28;20283;-70
2024/03/29 12:01:00;;;;;;;2.83;1.50;;;15.00;99.90;;;;;;5013289;28;20169;-68
2024/03/29 12:03:27;;;;;;;3.17;1.75;;;15.00;99.90;;;;;;5007741;28;20196;-68
2024/03/29 12:05:58;;;;;;;3.20;1.90;;;15.10;99.90;;;;;;5009430;28;20196;-67
2024/03/29 12:08:31;;;;;;;4.20;1.90;;;15.10;99.90;;;;;;5022734;28;20637;-67
2024/03/29 12:11:02;;;;;;;2.60;1.60;;;15.20;99.90;;;;;;5007162;28;20207;-69
2024/03/29 12:13:27;;;;;;;3.88;1.65;;;15.30;99.90;;;;;;5006045;28;20274;-70
2024/03/29 12:15:54;;;;;;;3.38;1.33;;;15.30;99.90;;;;;;5007547;28;20631;-68
2024/03/29 12:18:21;;;;;;;3.08;1.33;;;15.40;99.90;;;;;;5008300;28;20663;-68
2024/03/29 12:20:52;;;;;;;3.85;1.83;;;15.40;99.90;;;;;;5005209;28;20192;-69
2024/03/29 12:23:21;;;;;;;2.95;1.60;;;15.50;99.90;;;;;;5006913;28;20189;-66
2024/03/29 12:25:49;;;;;;;3.17;1.90;;;15.50;99.90;;;;;;5007303;28;20330;-68
2024/03/29 12:28:15;;;;;;;3.35;1.77;;;15.50;99.90;;;;;;5010737;28;20192;-69
2024/03/29 12:30:44;;;;;;;5.25;2.20;;;15.50;99.90;;;;;;5006470;28;20575;-69
2024/03/29 12:33:16;;;;;;;4.30;2.25;;;15.50;99.90;;;;;;5009769;28;20189;-68
2024/03/29 12:35:47;;;;;;;3.35;1.60;;;15.70;99.90;;;;;;5005453;28;20228;-68
2024/03/29 12:38:15;;;;;;;7.32;1.90;;;15.70;99.90;;;;;;5010661;28;20270;-68
2024/03/29 12:40:43;;;;;;;3.20;1.85;;;15.80;99.90;;;;;;5006578;28;20644;-69
2024/03/29 12:43:10;;;;;;;3.25;1.85;;;15.90;99.90;;;;;;5009724;28;20203;-68
2024/03/29 12:45:38;;;;;;;3.15;1.80;;;15.90;99.90;;;;;;5006768;28;20520;-70
2024/03/29 12:48:10;;;;;;;3.25;1.80;;;16.00;99.90;;;;;;5007832;28;20191;-68
2024/03/29 12:50:36;;;;;;;4.10;1.90;;;16.00;99.90;;;;;;5006712;28;20287;-70
2024/03/29 12:53:05;;;;;;;8.23;1.92;;;16.10;99.90;;;;;;5006334;28;20320;-67
2024/03/29 12:55:35;;;;;;;3.20;2.10;;;16.10;99.90;;;;;;5008378;28;20223;-69